createdAt,value
2018-09-08T00:02:28.183Z,13.70
2018-09-08T00:04:57.006Z,14.73
2018-09-08T00:07:31.246Z,12.87
2018-09-08T00:10:00.320Z,14.27
2018-09-08T00:12:29.237Z,14.40
2018-09-08T00:15:03.640Z,16.60
2018-09-08T00:17:37.834Z,13.73
2018-09-08T00:20:12.184Z,11.93
2018-09-08T00:22:46.411Z,14.67
2018-09-08T00:25:20.648Z,13.60
2018-09-08T00:27:54.752Z,17.33
2018-09-08T00:30:23.616Z,11.97
2018-09-08T00:32:52.460Z,11.87
2018-09-08T00:35:21.353Z,13.50
2018-09-08T00:37:50.203Z,13.23
2018-09-08T00:40:19.080Z,12.80
2018-09-08T00:42:48.419Z,14.07
2018-09-08T00:45:17.246Z,14.37
2018-09-08T00:47:46.063Z,11.50
2018-09-08T00:50:14.887Z,13.00
2018-09-08T00:52:43.723Z,13.33
2018-09-08T00:55:12.633Z,12.73
2018-09-08T00:57:41.482Z,14.03
2018-09-08T01:00:10.331Z,14.20
2018-09-08T01:02:39.162Z,12.50
2018-09-08T01:05:08.081Z,12.97
2018-09-08T01:07:36.981Z,13.67
2018-09-08T01:10:05.790Z,11.50
2018-09-08T01:12:34.702Z,11.10
2018-09-08T01:15:03.566Z,15.10
2018-09-08T01:17:32.420Z,15.87
2018-09-08T01:20:01.230Z,14.33
2018-09-08T01:22:30.472Z,14.43
2018-09-08T01:24:59.462Z,10.97
2018-09-08T01:27:28.371Z,13.93
2018-09-08T01:29:57.273Z,17.93
2018-09-08T01:32:26.132Z,13.27
2018-09-08T01:34:55.028Z,11.00
2018-09-08T01:37:23.850Z,15.60
2018-09-08T01:39:52.766Z,10.87
2018-09-08T01:42:21.582Z,10.50
2018-09-08T01:44:50.400Z,12.23
2018-09-08T01:47:19.271Z,12.57
2018-09-08T01:49:48.144Z,12.07
2018-09-08T01:52:17.043Z,11.13
2018-09-08T01:54:45.898Z,10.60
2018-09-08T01:57:14.751Z,13.03
2018-09-08T01:59:43.574Z,12.00
2018-09-08T02:02:12.456Z,12.00
2018-09-08T02:04:41.341Z,10.23
2018-09-08T02:07:10.215Z,15.23
2018-09-08T02:09:39.090Z,9.93
2018-09-08T02:12:07.969Z,11.90
2018-09-08T02:14:36.969Z,12.63
2018-09-08T02:17:06.122Z,16.17
2018-09-08T02:19:35.026Z,14.67
2018-09-08T02:22:03.929Z,13.33
2018-09-08T02:24:32.815Z,9.90
2018-09-08T02:27:01.638Z,10.70
2018-09-08T02:29:30.541Z,14.33
2018-09-08T02:31:59.391Z,12.53
2018-09-08T02:34:28.230Z,12.33
2018-09-08T02:36:57.110Z,11.47
2018-09-08T02:39:25.960Z,10.10
2018-09-08T02:41:54.790Z,13.60
2018-09-08T02:44:23.691Z,11.60
2018-09-08T02:46:52.551Z,14.03
2018-09-08T02:49:21.354Z,10.13
2018-09-08T02:51:48.953Z,11.03
2018-09-08T02:54:16.449Z,8.90
2018-09-08T02:56:43.966Z,13.70
2018-09-08T02:59:11.551Z,11.23
2018-09-08T03:01:39.627Z,9.87
2018-09-08T03:04:07.179Z,10.63
2018-09-08T03:06:34.768Z,9.73
2018-09-08T03:09:02.337Z,18.83
2018-09-08T03:11:29.834Z,12.33
2018-09-08T03:13:57.424Z,16.33
2018-09-08T03:16:24.972Z,10.70
2018-09-08T03:18:52.541Z,15.73
2018-09-08T03:21:20.121Z,16.13
2018-09-08T03:23:47.692Z,12.43
2018-09-08T03:26:15.209Z,10.70
2018-09-08T03:28:42.707Z,12.10
2018-09-08T03:31:10.271Z,11.83
2018-09-08T03:33:37.861Z,11.47
2018-09-08T03:36:05.407Z,14.20
2018-09-08T03:38:32.948Z,14.83
2018-09-08T03:41:00.515Z,10.73
2018-09-08T03:43:28.059Z,11.90
2018-09-08T03:45:55.667Z,11.40
2018-09-08T03:48:23.217Z,12.40
2018-09-08T03:50:50.770Z,12.17
2018-09-08T03:53:18.319Z,13.70
2018-09-08T03:55:45.885Z,11.70
2018-09-08T03:58:13.443Z,12.50
2018-09-08T04:00:40.984Z,12.70
2018-09-08T04:03:09.914Z,12.97
2018-09-08T04:05:38.870Z,11.37
2018-09-08T04:08:07.687Z,14.50
2018-09-08T04:10:36.514Z,11.20
2018-09-08T04:13:05.565Z,12.90
2018-09-08T04:15:34.465Z,11.90
2018-09-08T04:18:03.360Z,14.10
2018-09-08T04:20:32.112Z,13.07
2018-09-08T04:23:00.932Z,12.80
2018-09-08T04:25:29.751Z,13.97
2018-09-08T04:27:58.583Z,11.90
2018-09-08T04:30:27.441Z,13.07
2018-09-08T04:32:56.390Z,14.73
2018-09-08T04:35:25.421Z,15.53
2018-09-08T04:37:54.276Z,15.83
2018-09-08T04:40:23.116Z,12.40
2018-09-08T04:42:52.022Z,13.87
2018-09-08T04:45:20.946Z,17.33
2018-09-08T04:47:49.807Z,14.80
2018-09-08T04:50:18.653Z,11.77
2018-09-08T04:52:47.534Z,11.80
2018-09-08T04:55:16.469Z,11.30
2018-09-08T04:57:45.320Z,15.20
2018-09-08T05:00:14.162Z,13.60
2018-09-08T05:02:43.152Z,11.53
2018-09-08T05:05:12.886Z,12.40
2018-09-08T05:07:41.766Z,14.73
2018-09-08T05:10:10.707Z,12.00
2018-09-08T05:12:39.556Z,13.73
2018-09-08T05:15:08.453Z,12.20
2018-09-08T05:17:37.404Z,12.83
2018-09-08T05:20:06.845Z,21.13
2018-09-08T05:22:35.685Z,11.90
2018-09-08T05:25:04.626Z,13.70
2018-09-08T05:27:33.884Z,12.43
2018-09-08T05:30:02.979Z,11.47
2018-09-08T05:32:31.918Z,14.00
2018-09-08T05:35:00.868Z,14.00
2018-09-08T05:37:29.781Z,12.87
2018-09-08T05:39:58.711Z,13.07
2018-09-08T05:42:27.559Z,14.23
2018-09-08T05:44:56.438Z,12.00
2018-09-08T05:47:25.364Z,13.57
2018-09-08T05:49:54.198Z,16.27
2018-09-08T05:52:23.033Z,11.87
2018-09-08T05:54:51.851Z,16.60
2018-09-08T05:57:20.703Z,13.50
2018-09-08T05:59:49.580Z,11.83
2018-09-08T06:02:18.497Z,11.10
2018-09-08T06:04:47.391Z,13.67
2018-09-08T06:07:16.270Z,14.07
2018-09-08T06:09:45.162Z,12.40
2018-09-08T06:12:14.136Z,15.27
2018-09-08T06:14:42.977Z,11.10
2018-09-08T06:17:11.835Z,12.10
2018-09-08T06:19:40.795Z,11.60
2018-09-08T06:22:09.646Z,13.63
2018-09-08T06:24:38.521Z,11.20
2018-09-08T06:27:07.405Z,17.90
2018-09-08T06:29:36.323Z,13.73
2018-09-08T06:32:05.236Z,13.20
2018-09-08T06:34:34.129Z,15.97
2018-09-08T06:37:02.981Z,12.90
2018-09-08T06:39:31.838Z,15.13
2018-09-08T06:42:00.633Z,15.40
2018-09-08T06:44:29.527Z,13.53
2018-09-08T06:46:58.368Z,14.70
2018-09-08T06:49:27.282Z,14.53
2018-09-08T06:51:56.136Z,16.70
2018-09-08T06:54:25.023Z,20.23
2018-09-08T06:56:53.907Z,12.80
2018-09-08T06:59:22.739Z,12.83
2018-09-08T07:01:51.630Z,13.87
2018-09-08T07:04:20.448Z,14.83
2018-09-08T07:06:49.303Z,16.10
2018-09-08T07:09:18.164Z,14.23
2018-09-08T07:11:47.077Z,10.27
2018-09-08T07:14:15.930Z,11.40
2018-09-08T07:16:44.795Z,10.40
2018-09-08T07:19:13.622Z,12.40
2018-09-08T07:21:42.467Z,15.03
2018-09-08T07:24:11.351Z,11.37
2018-09-08T07:26:40.211Z,13.00
2018-09-08T07:29:09.050Z,11.50
2018-09-08T07:31:38.311Z,10.60
2018-09-08T07:34:07.264Z,13.63
2018-09-08T07:36:36.065Z,10.23
2018-09-08T07:39:08.108Z,11.27
2018-09-08T07:41:36.964Z,9.07
2018-09-08T07:44:06.090Z,9.50
2018-09-08T07:46:35.009Z,13.33
2018-09-08T07:49:03.856Z,16.53
2018-09-08T07:51:33.000Z,11.87
2018-09-08T07:54:01.979Z,10.93
2018-09-08T07:56:30.845Z,9.23
2018-09-08T07:58:59.744Z,12.07
2018-09-08T08:01:28.563Z,9.70
2018-09-08T08:03:57.483Z,11.93
2018-09-08T08:06:26.356Z,14.83
2018-09-08T08:08:55.253Z,12.63
2018-09-08T08:11:24.099Z,11.00
2018-09-08T08:13:52.973Z,12.97
2018-09-08T08:16:21.932Z,11.77
2018-09-08T08:18:50.784Z,27.77
2018-09-08T08:21:19.628Z,12.50
2018-09-08T08:23:48.496Z,17.20
2018-09-08T08:26:17.414Z,11.90
2018-09-08T08:28:46.275Z,9.77
2018-09-08T08:31:15.134Z,11.70
2018-09-08T08:33:44.006Z,8.80
2018-09-08T08:36:12.896Z,10.87
2018-09-08T08:38:41.790Z,7.90
2018-09-08T08:41:10.669Z,12.23
2018-09-08T08:43:39.656Z,11.90
2018-09-08T08:46:08.536Z,9.30
2018-09-08T08:48:37.499Z,12.70
2018-09-08T08:51:23.663Z,8.97
2018-09-08T08:54:10.065Z,9.03
2018-09-08T08:56:38.898Z,11.33
2018-09-08T08:59:07.825Z,9.90
2018-09-08T09:01:36.728Z,9.93
2018-09-08T09:04:05.592Z,10.03
2018-09-08T09:06:35.001Z,11.27
2018-09-08T09:09:05.496Z,8.90
2018-09-08T09:11:34.417Z,10.07
2018-09-08T09:14:03.307Z,11.30
2018-09-08T09:16:32.222Z,7.20
2018-09-08T09:19:33.827Z,9.30
2018-09-08T09:22:24.627Z,13.73
2018-09-08T09:25:05.726Z,9.70
2018-09-08T09:27:35.948Z,7.30
2018-09-08T09:30:05.076Z,10.80
2018-09-08T09:32:33.932Z,11.53
2018-09-08T09:35:02.809Z,13.40
2018-09-08T09:37:31.640Z,8.77
2018-09-08T09:40:00.781Z,9.63
2018-09-08T09:42:29.619Z,15.53
2018-09-08T09:44:58.516Z,10.87
2018-09-08T09:47:27.354Z,15.63
2018-09-08T09:49:56.172Z,9.67
2018-09-08T09:52:25.063Z,13.23
2018-09-08T09:54:53.938Z,11.60
2018-09-08T09:57:22.778Z,9.63
2018-09-08T09:59:51.696Z,10.67
2018-09-08T10:02:51.165Z,20.00
2018-09-08T10:05:22.166Z,12.50
2018-09-08T10:07:51.351Z,11.47
2018-09-08T10:10:23.473Z,15.90
2018-09-08T10:12:52.348Z,8.73
2018-09-08T10:15:21.189Z,9.80
2018-09-08T10:17:50.052Z,11.90
2018-09-08T10:20:21.045Z,12.23
2018-09-08T10:22:49.920Z,11.63
2018-09-08T10:25:19.726Z,8.93
2018-09-08T10:27:49.096Z,9.53
2018-09-08T10:30:18.460Z,9.03
2018-09-08T10:32:47.968Z,12.50
2018-09-08T10:35:16.902Z,11.30
2018-09-08T10:37:45.769Z,9.40
2018-09-08T10:40:14.605Z,11.43
2018-09-08T10:42:43.792Z,10.67
2018-09-08T10:45:12.631Z,9.90
2018-09-08T10:47:41.511Z,11.83
2018-09-08T10:50:11.213Z,10.97
2018-09-08T10:52:42.826Z,9.10
2018-09-08T10:55:11.680Z,8.50
2018-09-08T10:57:40.550Z,9.83
2018-09-08T11:00:10.153Z,11.37
2018-09-08T11:02:39.242Z,12.70
2018-09-08T11:05:07.932Z,13.40
2018-09-08T11:07:36.851Z,10.47
2018-09-08T11:10:06.139Z,15.13
2018-09-08T11:12:35.119Z,9.67
2018-09-08T11:15:04.061Z,9.27
2018-09-08T11:17:32.963Z,9.30
2018-09-08T11:20:01.853Z,12.53
2018-09-08T11:22:30.747Z,9.93
2018-09-08T11:24:59.630Z,10.00
2018-09-08T11:27:28.526Z,11.73
2018-09-08T11:29:57.465Z,14.80
2018-09-08T11:32:26.374Z,10.70
2018-09-08T11:34:55.201Z,9.27
2018-09-08T11:37:24.087Z,12.63
2018-09-08T11:39:53.042Z,17.40
2018-09-08T11:42:21.921Z,8.37
2018-09-08T11:44:50.844Z,12.57
2018-09-08T11:47:19.658Z,9.07
2018-09-08T11:49:48.516Z,9.83
2018-09-08T11:52:17.347Z,11.73
2018-09-08T11:54:46.300Z,11.43
2018-09-08T11:57:15.176Z,7.90
2018-09-08T11:59:44.163Z,13.90
2018-09-08T12:02:13.225Z,7.67
2018-09-08T12:04:42.133Z,7.33
2018-09-08T12:07:10.984Z,9.63
2018-09-08T12:09:39.823Z,9.70
2018-09-08T12:12:08.663Z,10.87
2018-09-08T12:14:37.477Z,7.80
2018-09-08T12:17:06.328Z,10.33
2018-09-08T12:19:35.180Z,12.33
2018-09-08T12:22:04.115Z,9.77
2018-09-08T12:24:32.977Z,8.93
2018-09-08T12:27:01.897Z,13.23
2018-09-08T12:29:30.763Z,14.63
2018-09-08T12:31:59.645Z,10.67
2018-09-08T12:34:28.581Z,12.80
2018-09-08T12:36:57.742Z,12.13
2018-09-08T12:39:26.573Z,10.97
2018-09-08T12:41:55.423Z,8.17
2018-09-08T12:44:24.296Z,10.10
2018-09-08T12:46:53.151Z,8.70
2018-09-08T12:49:22.061Z,9.63
2018-09-08T12:51:50.957Z,8.10
2018-09-08T12:54:19.795Z,9.40
2018-09-08T12:56:48.623Z,10.47
2018-09-08T12:59:17.406Z,9.67
2018-09-08T13:01:46.275Z,9.00
2018-09-08T13:04:15.092Z,7.40
2018-09-08T13:06:43.925Z,10.27
2018-09-08T13:09:12.782Z,9.40
2018-09-08T13:11:41.645Z,7.80
2018-09-08T13:14:10.499Z,11.70
2018-09-08T13:16:39.364Z,12.13
2018-09-08T13:19:08.326Z,6.83
2018-09-08T13:21:37.238Z,7.50
2018-09-08T13:24:06.379Z,9.20
2018-09-08T13:26:35.541Z,10.80
2018-09-08T13:29:04.488Z,7.07
2018-09-08T13:31:33.864Z,6.63
2018-09-08T13:34:03.374Z,6.93
2018-09-08T13:36:32.723Z,9.87
2018-09-08T13:39:02.037Z,8.80
2018-09-08T13:41:31.136Z,7.23
2018-09-08T13:44:00.267Z,8.50
2018-09-08T13:46:30.869Z,8.07
2018-09-08T13:49:00.148Z,8.20
2018-09-08T13:51:31.091Z,8.87
2018-09-08T13:54:01.127Z,7.60
2018-09-08T13:56:30.028Z,6.53
2018-09-08T13:58:58.917Z,6.43
2018-09-08T14:01:28.386Z,7.13
2018-09-08T14:03:57.253Z,8.20
2018-09-08T14:06:26.117Z,6.63
2018-09-08T14:08:55.008Z,7.47
2018-09-08T14:11:23.883Z,8.00
2018-09-08T14:13:52.796Z,12.30
2018-09-08T14:16:21.656Z,7.47
2018-09-08T14:18:50.951Z,9.70
2018-09-08T14:21:19.870Z,8.40
2018-09-08T14:23:48.733Z,8.60
2018-09-08T14:26:17.559Z,7.97
2018-09-08T14:28:46.426Z,12.10
2018-09-08T14:31:15.379Z,9.37
2018-09-08T14:33:44.360Z,10.33
2018-09-08T14:36:13.235Z,14.27
2018-09-08T14:38:42.136Z,6.13
2018-09-08T14:41:10.947Z,7.53
2018-09-08T14:43:39.841Z,7.60
2018-09-08T14:46:08.748Z,7.63
2018-09-08T14:48:37.640Z,7.37
2018-09-08T14:51:07.126Z,8.43
2018-09-08T14:53:35.993Z,8.23
2018-09-08T14:56:04.887Z,11.50
2018-09-08T14:58:33.797Z,11.03
2018-09-08T15:01:02.661Z,15.83
2018-09-08T15:03:31.472Z,8.40
2018-09-08T15:06:00.467Z,8.80
2018-09-08T15:08:29.331Z,6.50
2018-09-08T15:10:58.162Z,5.80
2018-09-08T15:13:26.980Z,5.73
2018-09-08T15:15:55.835Z,5.43
2018-09-08T15:18:24.671Z,7.10
2018-09-08T15:20:53.530Z,5.80
2018-09-08T15:23:22.363Z,7.30
2018-09-08T15:25:51.198Z,6.47
2018-09-08T15:28:20.042Z,7.27
2018-09-08T15:30:48.907Z,8.00
2018-09-08T15:33:17.828Z,8.77
2018-09-08T15:35:46.711Z,9.23
2018-09-08T15:38:15.720Z,9.30
2018-09-08T15:40:44.647Z,14.27
2018-09-08T15:43:13.548Z,12.23
2018-09-08T15:45:42.426Z,8.20
2018-09-08T15:48:11.337Z,9.17
2018-09-08T15:50:40.291Z,18.90
2018-09-08T15:53:09.169Z,16.07
2018-09-08T15:55:38.096Z,11.83
2018-09-08T15:58:07.036Z,8.27
2018-09-08T16:00:35.877Z,10.10
2018-09-08T16:03:04.738Z,8.97
2018-09-08T16:05:33.597Z,9.73
2018-09-08T16:08:04.397Z,12.87
2018-09-08T16:10:35.697Z,10.97
2018-09-08T16:13:04.836Z,10.63
2018-09-08T16:15:33.728Z,8.97
2018-09-08T16:18:02.608Z,9.40
2018-09-08T16:20:31.414Z,7.73
2018-09-08T16:23:00.301Z,7.83
2018-09-08T16:25:29.211Z,9.50
2018-09-08T16:27:58.203Z,10.63
2018-09-08T16:30:27.064Z,7.37
2018-09-08T16:32:55.968Z,9.63
2018-09-08T16:35:24.872Z,10.30
2018-09-08T16:37:53.758Z,16.43
2018-09-08T16:40:22.653Z,9.70
2018-09-08T16:42:51.528Z,8.97
2018-09-08T16:45:20.380Z,9.53
2018-09-08T16:47:49.240Z,10.63
2018-09-08T16:50:22.075Z,11.20
2018-09-08T16:52:50.918Z,9.10
2018-09-08T16:55:19.784Z,29.27
2018-09-08T16:57:48.813Z,16.63
2018-09-08T17:00:17.672Z,24.03
2018-09-08T17:02:46.578Z,14.93
2018-09-08T17:05:16.084Z,11.03
2018-09-08T17:07:45.147Z,12.10
2018-09-08T17:10:14.016Z,14.13
2018-09-08T17:12:42.931Z,13.63
2018-09-08T17:15:12.569Z,13.97
2018-09-08T17:17:44.585Z,11.10
2018-09-08T17:20:13.516Z,10.83
2018-09-08T17:22:42.419Z,13.53
2018-09-08T17:25:11.311Z,8.90
2018-09-08T17:27:40.417Z,144.27
2018-09-08T17:30:09.333Z,89.07
2018-09-08T17:32:38.154Z,27.67
2018-09-08T17:35:06.987Z,16.77
2018-09-08T17:37:35.843Z,34.13
2018-09-08T17:40:05.094Z,37.57
2018-09-08T17:42:34.058Z,21.90
2018-09-08T17:45:02.953Z,17.77
2018-09-08T17:47:31.778Z,18.30
2018-09-08T17:50:00.629Z,18.40
2018-09-08T17:52:29.506Z,18.20
2018-09-08T17:54:58.414Z,15.47
2018-09-08T17:57:27.297Z,14.80
2018-09-08T17:59:56.156Z,26.73
2018-09-08T18:02:24.994Z,16.57
2018-09-08T18:04:53.833Z,23.53
2018-09-08T18:07:22.694Z,19.43
2018-09-08T18:09:51.555Z,17.70
2018-09-08T18:12:20.408Z,18.70
2018-09-08T18:14:49.230Z,16.60
2018-09-08T18:17:18.079Z,18.23
2018-09-08T18:19:46.940Z,14.60
2018-09-08T18:22:15.820Z,23.30
2018-09-08T18:24:44.740Z,16.27
2018-09-08T18:27:13.582Z,16.90
2018-09-08T18:29:42.415Z,16.07
2018-09-08T18:32:11.313Z,20.60
2018-09-08T18:34:40.183Z,30.93
2018-09-08T18:37:09.057Z,22.83
2018-09-08T18:39:38.599Z,13.83
2018-09-08T18:42:07.923Z,19.67
2018-09-08T18:44:36.815Z,17.37
2018-09-08T18:47:05.698Z,20.73
2018-09-08T18:49:34.526Z,16.60
2018-09-08T18:52:03.410Z,15.03
2018-09-08T18:54:32.305Z,23.00
2018-09-08T18:57:01.116Z,19.07
2018-09-08T18:59:29.986Z,21.20
2018-09-08T19:01:58.827Z,17.60
2018-09-08T19:04:28.011Z,24.57
2018-09-08T19:06:57.040Z,18.93
2018-09-08T19:09:25.916Z,20.00
2018-09-08T19:11:54.805Z,24.77
2018-09-08T19:14:28.996Z,18.57
2018-09-08T19:16:57.922Z,16.37
2018-09-08T19:19:26.783Z,18.80
2018-09-08T19:21:55.632Z,22.20
2018-09-08T19:24:29.909Z,21.50
2018-09-08T19:26:58.760Z,21.57
2018-09-08T19:29:33.217Z,30.30
2018-09-08T19:32:02.063Z,27.73
2018-09-08T19:34:30.896Z,18.30
2018-09-08T19:36:59.806Z,16.20
2018-09-08T19:39:28.628Z,25.60
2018-09-08T19:41:57.568Z,26.50
2018-09-08T19:44:26.441Z,22.10
2018-09-08T19:47:00.780Z,18.87
2018-09-08T19:49:29.610Z,30.40
2018-09-08T19:51:58.493Z,24.57
2018-09-08T19:54:27.405Z,22.57
2018-09-08T19:57:01.753Z,36.40
2018-09-08T19:59:30.675Z,27.40
2018-09-08T20:01:59.610Z,21.13
2018-09-08T20:04:28.482Z,18.10
2018-09-08T20:06:57.327Z,19.03
2018-09-08T20:09:26.183Z,16.97
2018-09-08T20:11:55.047Z,20.13
2018-09-08T20:14:23.889Z,17.33
2018-09-08T20:16:52.708Z,17.93
2018-09-08T20:19:21.655Z,31.93
2018-09-08T20:21:50.801Z,25.57
2018-09-08T20:24:19.686Z,23.23
2018-09-08T20:26:48.875Z,18.70
2018-09-08T20:29:17.577Z,16.90
2018-09-08T20:31:46.484Z,23.67
2018-09-08T20:34:15.389Z,32.30
2018-09-08T20:36:44.194Z,33.10
2018-09-08T20:39:13.081Z,27.60
2018-09-08T20:41:43.504Z,19.80
2018-09-08T20:44:20.978Z,21.37
2018-09-08T20:46:49.865Z,29.63
2018-09-08T20:49:18.688Z,30.37
2018-09-08T20:51:47.555Z,28.10
2018-09-08T20:54:16.437Z,28.37
2018-09-08T20:56:45.275Z,27.40
2018-09-08T20:59:14.162Z,25.77
2018-09-08T21:01:43.031Z,25.00
2018-09-08T21:04:12.047Z,26.47
2018-09-08T21:06:40.977Z,27.90
2018-09-08T21:09:09.886Z,31.97
2018-09-08T21:11:38.702Z,23.93
2018-09-08T21:14:08.052Z,32.00
2018-09-08T21:16:36.947Z,26.90
2018-09-08T21:19:05.829Z,32.10
2018-09-08T21:21:34.679Z,34.80
2018-09-08T21:24:03.564Z,31.53
2018-09-08T21:26:33.098Z,29.83
2018-09-08T21:29:02.180Z,27.47
2018-09-08T21:31:31.077Z,24.90
2018-09-08T21:34:00.064Z,22.50
2018-09-08T21:36:28.933Z,26.80
2018-09-08T21:38:57.809Z,27.87
2018-09-08T21:41:26.681Z,27.67
2018-09-08T21:43:55.576Z,25.60
2018-09-08T21:46:24.647Z,23.67
2018-09-08T21:48:53.531Z,28.23
2018-09-08T21:51:22.351Z,26.57
2018-09-08T21:53:51.236Z,31.17
2018-09-08T21:56:20.071Z,25.77
2018-09-08T21:58:48.984Z,24.20
2018-09-08T22:01:22.985Z,28.80
2018-09-08T22:03:51.987Z,30.63
2018-09-08T22:06:20.948Z,28.33
2018-09-08T22:08:49.776Z,23.37
2018-09-08T22:11:18.590Z,25.33
2018-09-08T22:13:47.488Z,31.90
2018-09-08T22:16:16.503Z,23.90
2018-09-08T22:18:45.351Z,21.03
2018-09-08T22:21:14.258Z,23.97
2018-09-08T22:23:43.152Z,21.40
2018-09-08T22:26:12.052Z,23.20
2018-09-08T22:28:40.962Z,21.77
2018-09-08T22:31:09.827Z,20.90
2018-09-08T22:33:38.668Z,24.73
2018-09-08T22:36:07.512Z,24.30
2018-09-08T22:38:36.398Z,45.30
2018-09-08T22:41:05.264Z,29.60
2018-09-08T22:43:34.679Z,27.93
2018-09-08T22:46:03.539Z,23.80
2018-09-08T22:48:32.392Z,22.53
2018-09-08T22:51:01.254Z,23.10
2018-09-08T22:53:30.150Z,20.53
2018-09-08T22:55:59.007Z,26.10
2018-09-08T22:58:27.834Z,22.73
2018-09-08T23:00:56.670Z,32.20
2018-09-08T23:03:25.524Z,30.73
2018-09-08T23:05:54.397Z,18.93
2018-09-08T23:08:23.243Z,18.50
2018-09-08T23:10:52.104Z,20.93
2018-09-08T23:13:21.038Z,19.93
2018-09-08T23:15:50.281Z,19.30
2018-09-08T23:18:19.232Z,21.63
2018-09-08T23:20:48.328Z,19.40
2018-09-08T23:23:17.217Z,24.13
2018-09-08T23:25:46.073Z,36.57
2018-09-08T23:28:14.981Z,22.67
2018-09-08T23:30:43.889Z,22.90
2018-09-08T23:33:12.698Z,22.17
2018-09-08T23:35:41.603Z,32.07
2018-09-08T23:38:10.609Z,27.63
2018-09-08T23:40:39.457Z,19.90
2018-09-08T23:43:08.302Z,15.80
2018-09-08T23:45:37.233Z,21.57
2018-09-08T23:48:06.087Z,20.37
2018-09-08T23:50:34.961Z,21.67
2018-09-08T23:53:03.895Z,25.10
2018-09-08T23:55:32.792Z,29.27
2018-09-08T23:58:01.646Z,14.73
